createdAt,value
2022-12-23T00:00:40.644Z,76.30
2022-12-23T00:03:08.825Z,75.90
2022-12-23T00:05:38.205Z,75.60
2022-12-23T00:08:06.730Z,75.60
2022-12-23T00:10:35.005Z,75.60
2022-12-23T00:13:20.353Z,75.60
2022-12-23T00:15:47.222Z,75.50
2022-12-23T00:18:14.174Z,75.40
2022-12-23T00:20:41.084Z,75.00
2022-12-23T00:23:08.002Z,75.30
2022-12-23T00:25:41.118Z,75.10
2022-12-23T00:28:11.832Z,75.10
2022-12-23T00:30:49.040Z,74.80
2022-12-23T00:33:19.092Z,74.90
2022-12-23T00:35:46.670Z,74.90
2022-12-23T00:38:13.941Z,75.10
2022-12-23T00:40:59.464Z,75.30
2022-12-23T00:43:26.479Z,75.10
2022-12-23T00:45:53.502Z,75.10
2022-12-23T00:48:39.184Z,75.10
2022-12-23T00:51:06.873Z,75.60
2022-12-23T00:53:33.701Z,75.80
2022-12-23T00:56:00.633Z,75.60
2022-12-23T00:58:27.599Z,75.10
2022-12-23T01:01:13.631Z,75.00
2022-12-23T01:03:59.060Z,75.10
2022-12-23T01:06:27.557Z,74.80
2022-12-23T01:08:54.488Z,74.30
2022-12-23T01:11:22.153Z,74.40
2022-12-23T01:13:48.989Z,74.50
2022-12-23T01:16:17.876Z,74.30
2022-12-23T01:18:45.447Z,74.40
2022-12-23T01:21:12.703Z,74.30
2022-12-23T01:23:39.654Z,74.20
2022-12-23T01:26:08.027Z,74.20
2022-12-23T01:28:35.774Z,74.20
2022-12-23T01:31:04.753Z,74.20
2022-12-23T01:33:32.810Z,74.20
2022-12-23T01:36:06.696Z,74.10
2022-12-23T01:38:34.880Z,74.10
2022-12-23T01:41:01.744Z,74.10
2022-12-23T01:44:24.233Z,74.10
2022-12-23T01:46:51.392Z,74.00
2022-12-23T01:49:18.236Z,74.00
2022-12-23T01:51:46.196Z,74.20
2022-12-23T01:54:13.004Z,74.30
2022-12-23T01:56:40.817Z,74.10
2022-12-23T01:59:32.817Z,74.20
2022-12-23T02:02:18.852Z,75.00
2022-12-23T02:04:47.528Z,74.50
2022-12-23T02:07:33.062Z,74.50
2022-12-23T02:09:59.989Z,74.50
2022-12-23T02:12:52.939Z,74.50
2022-12-23T02:18:56.245Z,74.50
2022-12-23T02:21:39.268Z,74.30
2022-12-23T02:24:39.572Z,74.10
2022-12-23T02:27:22.658Z,74.00
2022-12-23T02:30:18.579Z,74.40
2022-12-23T02:32:49.109Z,74.40
2022-12-23T02:35:30.577Z,74.50
2022-12-23T02:38:13.633Z,74.70
2022-12-23T02:40:51.902Z,74.70
2022-12-23T02:43:49.755Z,74.80
2022-12-23T02:46:30.749Z,75.10
2022-12-23T02:49:07.926Z,76.00
2022-12-23T02:51:40.634Z,75.60
2022-12-23T02:54:11.104Z,76.00
2022-12-23T02:56:42.598Z,76.20
2022-12-23T02:59:21.656Z,76.30
2022-12-23T03:01:50.825Z,76.50
2022-12-23T03:04:18.196Z,76.70
2022-12-23T03:06:49.889Z,76.90
2022-12-23T03:09:41.937Z,77.10
2022-12-23T03:12:28.285Z,77.20
2022-12-23T03:15:08.142Z,77.40
2022-12-23T03:17:47.153Z,77.50
2022-12-23T03:20:25.629Z,77.60
2022-12-23T03:23:12.211Z,77.70
2022-12-23T03:25:47.992Z,77.90
2022-12-23T03:28:24.572Z,78.00
2022-12-23T03:30:56.281Z,78.70
2022-12-23T03:33:28.574Z,78.10
2022-12-23T03:36:10.066Z,78.00
2022-12-23T03:38:39.447Z,78.10
2022-12-23T03:41:12.234Z,78.10
2022-12-23T03:43:51.505Z,78.20
2022-12-23T03:46:26.585Z,78.30
2022-12-23T03:48:57.983Z,78.30
2022-12-23T03:51:45.602Z,78.30
2022-12-23T03:54:21.272Z,78.30
2022-12-23T03:57:01.796Z,78.30
2022-12-23T03:59:42.615Z,78.80
2022-12-23T04:02:15.933Z,78.30
2022-12-23T04:05:13.006Z,78.30
2022-12-23T04:07:47.519Z,78.40
2022-12-23T04:10:15.499Z,78.60
2022-12-23T04:12:42.624Z,78.50
2022-12-23T04:15:13.114Z,78.60
2022-12-23T04:17:40.675Z,78.70
2022-12-23T04:20:08.321Z,78.80
2022-12-23T04:22:35.353Z,78.70
2022-12-23T04:25:02.270Z,78.70
2022-12-23T04:27:29.998Z,78.90
2022-12-23T04:29:56.927Z,78.90
2022-12-23T04:32:24.667Z,78.90
2022-12-23T04:34:51.525Z,78.90
2022-12-23T04:37:19.101Z,79.00
2022-12-23T04:39:46.010Z,79.10
2022-12-23T04:42:13.040Z,79.20
2022-12-23T04:44:40.074Z,79.20
2022-12-23T04:47:07.160Z,79.20
2022-12-23T04:49:34.244Z,79.30
2022-12-23T04:52:01.335Z,79.40
2022-12-23T04:54:28.195Z,79.50
2022-12-23T04:56:55.351Z,79.60
2022-12-23T04:59:22.383Z,79.60
2022-12-23T05:01:50.584Z,79.70
2022-12-23T05:04:18.985Z,79.60
2022-12-23T05:06:46.036Z,79.50
2022-12-23T05:09:13.096Z,79.50
2022-12-23T05:11:42.309Z,79.70
2022-12-23T05:14:13.794Z,79.70
2022-12-23T05:16:42.017Z,79.80
2022-12-23T05:19:10.212Z,79.90
2022-12-23T05:21:37.401Z,79.80
2022-12-23T05:24:04.559Z,79.80
2022-12-23T05:26:32.141Z,79.90
2022-12-23T05:28:59.175Z,79.90
2022-12-23T05:31:27.903Z,80.00
2022-12-23T05:33:54.869Z,80.00
2022-12-23T05:36:22.107Z,79.40
2022-12-23T05:38:49.040Z,79.20
2022-12-23T05:41:16.907Z,79.10
2022-12-23T05:43:49.383Z,79.10
2022-12-23T05:46:35.715Z,79.20
2022-12-23T05:49:05.763Z,79.30
2022-12-23T05:51:33.384Z,79.40
2022-12-23T05:54:00.527Z,79.20
2022-12-23T05:56:27.582Z,79.30
2022-12-23T05:58:54.609Z,79.30
2022-12-23T06:01:21.735Z,79.30
2022-12-23T06:03:49.072Z,79.30
2022-12-23T06:06:23.252Z,79.20
2022-12-23T06:08:54.482Z,79.30
2022-12-23T06:11:27.593Z,79.00
2022-12-23T06:13:54.951Z,78.90
2022-12-23T06:16:23.366Z,78.80
2022-12-23T06:18:55.424Z,78.70
2022-12-23T06:21:22.812Z,78.70
2022-12-23T06:23:49.867Z,78.40
2022-12-23T06:26:17.475Z,78.80
2022-12-23T06:28:44.956Z,79.20
2022-12-23T06:31:25.985Z,78.70
2022-12-23T06:33:55.592Z,78.70
2022-12-23T06:36:23.195Z,78.70
2022-12-23T06:38:50.436Z,78.80
2022-12-23T06:41:17.925Z,79.40
2022-12-23T06:43:47.726Z,78.70
2022-12-23T06:46:17.167Z,78.70
2022-12-23T06:48:46.805Z,78.60
2022-12-23T06:51:14.698Z,78.60
2022-12-23T06:53:41.890Z,78.60
2022-12-23T06:56:14.201Z,78.70
2022-12-23T06:58:41.396Z,78.60
2022-12-23T07:01:14.410Z,78.30
2022-12-23T07:03:54.143Z,78.30
2022-12-23T07:06:32.787Z,78.30
2022-12-23T07:12:36.623Z,78.60
2022-12-23T07:15:22.480Z,78.70
2022-12-23T07:20:48.483Z,78.80
2022-12-23T07:23:21.151Z,79.00
2022-12-23T07:26:03.536Z,79.00
2022-12-23T07:28:40.069Z,79.00
2022-12-23T07:31:43.971Z,79.00
2022-12-23T07:34:36.523Z,78.90
2022-12-23T07:37:17.145Z,78.60
2022-12-23T07:39:47.531Z,78.70
2022-12-23T07:45:20.753Z,78.60
2022-12-23T07:48:08.973Z,78.30
2022-12-23T07:51:05.672Z,78.30
2022-12-23T07:53:40.490Z,78.10
2022-12-23T07:56:35.548Z,78.00
2022-12-23T07:59:10.135Z,78.20
2022-12-23T08:02:50.142Z,78.10
2022-12-23T08:11:15.863Z,78.40
2022-12-23T08:14:16.926Z,78.30
2022-12-23T08:16:53.766Z,78.60
2022-12-23T08:29:22.655Z,78.90
2022-12-23T08:31:54.139Z,78.70
2022-12-23T08:34:21.017Z,78.70
2022-12-23T08:36:47.883Z,78.70
2022-12-23T08:39:15.767Z,78.70
2022-12-23T08:41:45.971Z,78.70
2022-12-23T08:44:15.803Z,78.50
2022-12-23T08:46:43.063Z,78.40
2022-12-23T08:49:10.401Z,78.50
2022-12-23T08:51:37.925Z,78.50
2022-12-23T08:54:05.731Z,78.40
2022-12-23T08:56:35.733Z,78.20
2022-12-23T08:59:04.072Z,78.10
2022-12-23T09:01:34.010Z,78.10
2022-12-23T09:04:06.133Z,78.00
2022-12-23T09:06:43.228Z,78.10
2022-12-23T09:09:12.868Z,77.80
2022-12-23T09:11:39.744Z,77.80
2022-12-23T09:14:08.656Z,77.60
2022-12-23T09:16:35.920Z,77.60
2022-12-23T09:19:03.674Z,77.60
2022-12-23T09:21:30.821Z,77.60
2022-12-23T09:23:57.696Z,77.50
2022-12-23T09:26:27.577Z,77.50
2022-12-23T09:28:55.209Z,77.60
2022-12-23T09:31:23.592Z,77.60
2022-12-23T09:33:52.987Z,77.70
2022-12-23T09:36:20.680Z,77.80
2022-12-23T09:38:55.305Z,77.90
2022-12-23T09:41:39.650Z,77.90
2022-12-23T09:44:27.288Z,78.00
2022-12-23T09:47:00.271Z,78.00
2022-12-23T09:49:28.132Z,78.10
2022-12-23T09:52:00.267Z,78.10
2022-12-23T09:54:33.097Z,78.20
2022-12-23T09:57:17.386Z,78.80
2022-12-23T10:00:06.954Z,78.10
2022-12-23T10:02:45.052Z,77.90
2022-12-23T10:05:30.858Z,78.00
2022-12-23T10:08:07.660Z,77.80
2022-12-23T10:11:27.245Z,77.90
2022-12-23T10:14:18.173Z,77.80
2022-12-23T10:16:49.510Z,77.60
2022-12-23T10:19:45.818Z,77.60
2022-12-23T10:22:31.997Z,77.50
2022-12-23T10:25:03.204Z,76.70
2022-12-23T10:27:34.745Z,76.40
2022-12-23T10:33:24.298Z,76.40
2022-12-23T10:36:05.054Z,76.40
2022-12-23T10:39:02.743Z,76.30
2022-12-23T10:41:44.697Z,76.30
2022-12-23T10:44:49.249Z,76.20
2022-12-23T10:47:26.614Z,76.30
2022-12-23T10:50:09.584Z,76.20
2022-12-23T10:52:42.449Z,76.20
2022-12-23T10:55:24.302Z,76.00
2022-12-23T10:58:13.126Z,76.00
2022-12-23T11:00:45.514Z,75.90
2022-12-23T11:03:18.741Z,75.90
2022-12-23T11:05:50.191Z,76.10
2022-12-23T11:08:20.087Z,76.10
2022-12-23T11:10:47.887Z,76.30
2022-12-23T11:13:36.853Z,76.40
2022-12-23T11:16:28.426Z,76.50
2022-12-23T11:19:02.626Z,76.80
2022-12-23T11:21:32.761Z,77.00
2022-12-23T11:24:19.010Z,77.10
2022-12-23T11:26:49.707Z,77.00
2022-12-23T11:29:29.637Z,76.70
2022-12-23T11:31:56.673Z,76.60
2022-12-23T11:34:26.160Z,76.40
2022-12-23T11:37:06.934Z,76.40
2022-12-23T11:39:36.967Z,75.90
2022-12-23T11:42:17.243Z,76.00
2022-12-23T11:44:49.108Z,75.70
2022-12-23T11:47:29.232Z,75.80
2022-12-23T11:49:59.936Z,75.60
2022-12-23T11:52:28.860Z,75.60
2022-12-23T11:54:58.529Z,75.40
2022-12-23T11:57:45.661Z,75.30
2022-12-23T12:00:40.445Z,75.40
2022-12-23T12:03:18.008Z,75.40
2022-12-23T12:06:13.836Z,75.40
2022-12-23T12:08:42.066Z,75.40
2022-12-23T12:11:15.601Z,75.30
2022-12-23T12:13:51.724Z,75.40
2022-12-23T12:16:36.324Z,75.20
2022-12-23T12:19:15.264Z,75.20
2022-12-23T12:21:44.716Z,75.40
2022-12-23T12:24:28.382Z,75.40
2022-12-23T12:27:01.577Z,75.70
2022-12-23T12:29:40.403Z,75.50
2022-12-23T12:32:23.058Z,75.40
2022-12-23T12:34:50.341Z,75.60
2022-12-23T12:37:22.993Z,75.70
2022-12-23T12:40:00.663Z,76.00
2022-12-23T12:42:42.378Z,75.90
2022-12-23T12:45:25.361Z,76.10
2022-12-23T12:48:35.043Z,76.10
2022-12-23T12:51:29.971Z,76.00
2022-12-23T12:54:01.141Z,75.90
2022-12-23T12:56:53.743Z,76.10
2022-12-23T12:59:24.825Z,76.20
2022-12-23T13:02:12.086Z,76.10
2022-12-23T13:05:02.178Z,76.20
2022-12-23T13:07:39.380Z,76.30
2022-12-23T13:10:24.955Z,76.30
2022-12-23T13:13:13.451Z,76.20
2022-12-23T13:15:55.225Z,76.30
2022-12-23T13:18:46.406Z,76.30
2022-12-23T13:21:28.385Z,76.30
2022-12-23T13:24:03.811Z,76.30
2022-12-23T13:26:52.031Z,77.10
2022-12-23T13:29:37.924Z,76.40
2022-12-23T13:32:17.787Z,76.40
2022-12-23T13:35:00.980Z,76.20
2022-12-23T13:38:09.587Z,76.20
2022-12-23T13:41:01.303Z,76.30
2022-12-23T13:43:40.289Z,76.30
2022-12-23T13:46:26.907Z,76.50
2022-12-23T13:49:07.580Z,76.40
2022-12-23T13:51:43.772Z,76.50
2022-12-23T13:54:33.903Z,76.60
2022-12-23T13:57:08.550Z,76.70
2022-12-23T13:59:41.060Z,76.90
2022-12-23T14:02:36.149Z,77.10
2022-12-23T14:05:09.272Z,77.00
2022-12-23T14:07:38.681Z,77.20
2022-12-23T14:10:21.547Z,77.20
2022-12-23T14:12:50.269Z,77.20
2022-12-23T14:15:32.325Z,77.30
2022-12-23T14:18:30.861Z,77.10
2022-12-23T14:21:29.501Z,77.10
2022-12-23T14:24:34.065Z,77.10
2022-12-23T14:27:38.845Z,77.20
2022-12-23T14:30:32.744Z,77.20
2022-12-23T14:33:02.329Z,76.90
2022-12-23T14:35:40.104Z,76.80
2022-12-23T14:38:21.505Z,76.50
2022-12-23T14:40:53.762Z,76.50
2022-12-23T14:43:26.368Z,76.40
2022-12-23T14:45:54.891Z,75.50
2022-12-23T14:48:34.126Z,75.40
2022-12-23T14:51:29.015Z,75.20
2022-12-23T14:53:59.565Z,74.30
2022-12-23T14:56:43.765Z,74.20
2022-12-23T14:59:32.585Z,74.10
2022-12-23T15:02:04.378Z,74.10
2022-12-23T15:04:53.034Z,74.10
2022-12-23T15:07:38.540Z,73.90
2022-12-23T15:10:17.731Z,73.60
2022-12-23T15:12:49.388Z,73.00
2022-12-23T15:15:20.968Z,73.00
2022-12-23T15:17:49.303Z,73.10
2022-12-23T15:20:19.071Z,73.20
2022-12-23T15:22:47.553Z,72.70
2022-12-23T15:25:23.310Z,72.80
2022-12-23T15:28:00.810Z,72.70
2022-12-23T15:30:34.167Z,72.40
2022-12-23T15:33:34.787Z,72.50
2022-12-23T15:35:56.041Z,72.40
2022-12-23T15:38:29.446Z,72.40
2022-12-23T15:40:59.511Z,72.20
2022-12-23T15:43:26.424Z,72.40
2022-12-23T15:46:04.541Z,72.40
2022-12-23T15:48:32.812Z,72.70
2022-12-23T15:51:05.935Z,72.60
2022-12-23T15:53:36.667Z,72.80
2022-12-23T15:56:09.980Z,72.90
2022-12-23T15:58:41.754Z,73.10
2022-12-23T16:01:15.331Z,73.00
2022-12-23T16:03:48.934Z,73.10
2022-12-23T16:06:34.593Z,73.40
2022-12-23T16:09:23.088Z,73.60
2022-12-23T16:11:57.050Z,74.00
2022-12-23T16:14:34.953Z,74.30
2022-12-23T16:17:08.713Z,74.30
2022-12-23T16:19:49.720Z,74.40
2022-12-23T16:22:37.349Z,74.40
2022-12-23T16:28:32.228Z,74.20
2022-12-23T16:31:00.464Z,74.20
2022-12-23T16:33:45.578Z,74.30
2022-12-23T16:36:21.374Z,74.40
2022-12-23T16:39:12.074Z,74.60
2022-12-23T16:41:40.450Z,74.70
2022-12-23T16:44:07.402Z,74.80
2022-12-23T16:46:38.677Z,74.70
2022-12-23T16:49:11.012Z,74.90
2022-12-23T16:51:48.930Z,75.00
2022-12-23T16:54:27.501Z,75.10
2022-12-23T16:56:58.603Z,75.10
2022-12-23T16:59:30.630Z,75.30
2022-12-23T17:02:03.476Z,75.40
2022-12-23T17:04:33.581Z,75.40
2022-12-23T17:07:02.776Z,75.30
2022-12-23T17:09:32.022Z,75.40
2022-12-23T17:12:00.451Z,75.60
2022-12-23T17:14:28.349Z,75.20
2022-12-23T17:16:58.813Z,75.40
2022-12-23T17:19:29.671Z,75.40
2022-12-23T17:22:01.600Z,75.20
2022-12-23T17:24:32.509Z,75.30
2022-12-23T17:27:01.889Z,75.10
2022-12-23T17:29:32.038Z,75.10
2022-12-23T17:32:02.127Z,74.90
2022-12-23T17:34:48.185Z,75.00
2022-12-23T17:37:19.361Z,75.00
2022-12-23T17:39:47.681Z,75.00
2022-12-23T17:42:25.533Z,75.00
2022-12-23T17:44:53.274Z,75.00
2022-12-23T17:47:22.608Z,74.90
2022-12-23T17:49:50.596Z,74.80
2022-12-23T17:52:28.150Z,74.60
2022-12-23T17:54:56.789Z,74.80
2022-12-23T17:57:28.671Z,74.80
2022-12-23T18:00:01.781Z,74.70
2022-12-23T18:02:40.115Z,74.80
2022-12-23T18:05:26.298Z,74.70
2022-12-23T18:07:54.449Z,74.50
2022-12-23T18:10:44.654Z,74.60
2022-12-23T18:13:18.401Z,74.50
2022-12-23T18:15:48.703Z,74.30
2022-12-23T18:18:34.248Z,74.20
2022-12-23T18:21:11.747Z,74.00
2022-12-23T18:23:38.917Z,73.90
2022-12-23T18:26:10.916Z,73.90
2022-12-23T18:28:40.668Z,73.60
2022-12-23T18:31:15.516Z,73.60
2022-12-23T18:33:43.137Z,73.60
2022-12-23T18:36:31.701Z,73.50
2022-12-23T18:39:02.464Z,73.50
2022-12-23T18:41:30.205Z,73.40
2022-12-23T18:43:57.588Z,73.40
2022-12-23T18:46:24.761Z,73.60
2022-12-23T18:48:54.914Z,74.30
2022-12-23T18:51:22.788Z,73.60
2022-12-23T18:53:56.200Z,73.80
2022-12-23T18:56:24.107Z,73.80
2022-12-23T18:58:56.981Z,73.90
2022-12-23T19:01:25.236Z,73.80
2022-12-23T19:03:52.265Z,73.90
2022-12-23T19:06:19.215Z,74.10
2022-12-23T19:08:47.652Z,74.00
2022-12-23T19:11:21.571Z,73.90
2022-12-23T19:13:54.913Z,73.70
2022-12-23T19:16:23.023Z,73.90
2022-12-23T19:18:50.380Z,73.60
2022-12-23T19:21:22.800Z,73.60
2022-12-23T19:23:53.411Z,73.60
2022-12-23T19:26:26.298Z,73.30
2022-12-23T19:28:54.710Z,73.30
2022-12-23T19:31:23.150Z,73.30
2022-12-23T19:33:54.969Z,73.30
2022-12-23T19:36:48.234Z,73.30
2022-12-23T19:39:21.925Z,73.20
2022-12-23T19:41:58.277Z,74.10
2022-12-23T19:44:33.886Z,73.20
2022-12-23T19:47:03.396Z,72.90
2022-12-23T19:49:34.546Z,72.40
2022-12-23T19:52:07.882Z,72.70
2022-12-23T19:54:37.801Z,72.40
2022-12-23T19:57:08.061Z,72.30
2022-12-23T19:59:38.840Z,72.30
2022-12-23T20:02:06.111Z,72.30
2022-12-23T20:04:33.371Z,72.30
2022-12-23T20:07:00.413Z,71.80
2022-12-23T20:09:33.618Z,72.10
2022-12-23T20:12:00.906Z,72.20
2022-12-23T20:14:32.337Z,72.10
2022-12-23T20:17:02.524Z,72.20
2022-12-23T20:19:45.605Z,72.20
2022-12-23T20:22:24.076Z,72.20
2022-12-23T20:24:52.076Z,72.90
2022-12-23T20:27:27.695Z,72.30
2022-12-23T20:29:57.992Z,72.20
2022-12-23T20:32:28.535Z,72.10
2022-12-23T20:35:23.434Z,71.80
2022-12-23T20:37:50.791Z,71.90
2022-12-23T20:40:19.228Z,72.00
2022-12-23T20:42:47.968Z,72.10
2022-12-23T20:45:14.904Z,72.00
2022-12-23T20:47:41.824Z,71.90
2022-12-23T20:50:08.980Z,72.00
2022-12-23T20:52:36.708Z,71.90
2022-12-23T20:55:03.945Z,71.80
2022-12-23T20:57:31.828Z,72.00
2022-12-23T20:59:58.651Z,72.10
2022-12-23T21:02:26.856Z,72.20
2022-12-23T21:04:53.813Z,72.20
2022-12-23T21:07:20.863Z,72.10
2022-12-23T21:09:47.730Z,71.90
2022-12-23T21:12:14.885Z,71.80
2022-12-23T21:14:41.744Z,71.60
2022-12-23T21:17:08.787Z,71.70
2022-12-23T21:19:35.629Z,71.70
2022-12-23T21:22:03.217Z,71.80
2022-12-23T21:24:30.045Z,71.90
2022-12-23T21:26:57.367Z,71.90
2022-12-23T21:29:24.953Z,72.00
2022-12-23T21:31:52.037Z,72.00
2022-12-23T21:34:19.849Z,72.20
2022-12-23T21:36:46.877Z,72.20
2022-12-23T21:39:16.770Z,72.10
2022-12-23T21:41:43.799Z,72.20
2022-12-23T21:44:13.565Z,72.00
2022-12-23T21:46:40.952Z,72.20
2022-12-23T21:49:07.829Z,72.20
2022-12-23T21:51:40.165Z,72.30
2022-12-23T21:54:10.100Z,72.50
2022-12-23T21:56:37.571Z,72.50
2022-12-23T21:59:07.326Z,72.40
2022-12-23T22:01:34.841Z,72.50
2022-12-23T22:04:02.474Z,72.50
2022-12-23T22:06:33.000Z,72.50
2022-12-23T22:09:00.155Z,72.60
2022-12-23T22:11:30.105Z,72.70
2022-12-23T22:13:58.686Z,72.80
2022-12-23T22:16:28.583Z,72.80
2022-12-23T22:18:57.204Z,72.90
2022-12-23T22:21:25.934Z,72.90
2022-12-23T22:23:53.946Z,73.00
2022-12-23T22:26:27.063Z,73.00
2022-12-23T22:28:56.495Z,73.00
2022-12-23T22:31:29.284Z,73.10
2022-12-23T22:33:57.309Z,73.20
2022-12-23T22:36:24.406Z,73.10
2022-12-23T22:38:54.524Z,73.20
2022-12-23T22:41:22.034Z,73.30
2022-12-23T22:43:50.301Z,73.20
2022-12-23T22:46:18.424Z,73.00
2022-12-23T22:48:46.077Z,73.20
2022-12-23T22:51:18.714Z,73.20
2022-12-23T22:53:46.976Z,73.30
2022-12-23T22:56:15.638Z,73.30
2022-12-23T22:58:44.044Z,73.30
2022-12-23T23:01:24.474Z,73.50
2022-12-23T23:03:57.523Z,73.50
2022-12-23T23:06:27.300Z,73.40
2022-12-23T23:08:54.883Z,73.60
2022-12-23T23:11:22.725Z,73.60
2022-12-23T23:13:49.613Z,73.70
2022-12-23T23:16:16.666Z,73.60
2022-12-23T23:18:44.097Z,73.70
2022-12-23T23:21:16.325Z,73.90
2022-12-23T23:23:43.679Z,73.80
2022-12-23T23:26:11.237Z,73.90
2022-12-23T23:28:39.536Z,73.80
2022-12-23T23:31:40.614Z,73.90
2022-12-23T23:33:54.327Z,73.90
2022-12-23T23:36:21.334Z,74.00
2022-12-23T23:38:48.358Z,74.00
2022-12-23T23:41:22.231Z,74.10
2022-12-23T23:43:50.232Z,74.10
2022-12-23T23:46:17.232Z,74.10
2022-12-23T23:48:44.209Z,74.10
2022-12-23T23:51:12.477Z,74.20
2022-12-23T23:53:40.521Z,74.00
2022-12-23T23:56:08.653Z,74.00
2022-12-23T23:58:37.021Z,74.10
